Terminal Aerodrome Forecast
Issued by NWS Charleston, SC

Home | Current Version | Previous Version | Text Only | Print | Product List | Glossary On
Versions: 1 2 3 4 5 6 7 8 9 10 11 12 13 14 15 16 17 18 19 20
000
FTUS42 KCHS 302330
TAFCHS
TAF
KCHS 302330Z 3100/3124 14010KT P6SM SCT025 BKN040
     FM310500 17009KT P6SM VCTS SCT020 OVC050CB
      TEMPO 3106/3109 3SM TSRA BR OVC040CB
     FM311100 18012G18KT P6SM -SHRA OVC040
     FM311400 20015G25KT P6SM BKN050=

USA.gov is the U.S. government's official web portal to all federal, state and local government web resources and services.